Tropical Cyclones
[Index]
Main Index Home Page Stock Weather Photos Extreme Storms Discussion Storm News and Storm Chasing Reports Tropical Cyclones / Hurricanes / Typhoons Weather Data and Links Wild Fires / Bushfires Weather Observation Techniques Weather Picture Catalogue Tornado Pictures and Reports Stock Video Footage and DVDs for sale
Season 1984-1985 Tropical Cyclone ODETTE Track Map
Season 1984-1985 Summaries: [BoM-AU] [JTWC-AU] [JTWC-SIO] [JTWC-SPAC] [JTWC-SH]
<<- Previous TC | JTWC 1984-1985 Season | Next TC ->>

click for intensity scale information  Lat/long Grid: Show Hide

 Date Labels: Show Hide

Joint Typhoon Warning Centre Cyclone Data

Name: ODETTE

16 Jan 1985 18:00 UTC to 21 Jan 1985 18:00 UTC

    date/time    lat    long     hPa   cat  kts
1985-01-16 18   14.7   146.3                  25          
1985-01-17 00   14.7   147.6                  35          
1985-01-17 06   14.7   149.0            1     45          
1985-01-17 12   14.7   150.4            2     55          
1985-01-17 18   14.7   151.8            2     65          
1985-01-18 00   15.0   153.2            3     75          
1985-01-18 06   15.4   154.4            3     80          
1985-01-18 12   15.7   155.4            3     85          
1985-01-18 18   15.9   156.3            3     90          
1985-01-19 00   16.0   157.3            3     95          
1985-01-19 06   16.1   158.4            4    100          
1985-01-19 12   16.3   159.8            4    100          
1985-01-19 18   16.5   161.4            3     90          
1985-01-20 00   16.7   163.1            3     85          
1985-01-20 06   16.9   164.8            3     75          
1985-01-20 12   17.4   166.6            2     65          
1985-01-20 18   18.2   168.4            2     55          
1985-01-21 00   19.5   170.1            1     50          
1985-01-21 06   20.9   171.7            1     40          
1985-01-21 12   21.4   173.1                  35          
1985-01-21 18   21.2   174.4                  25          
Winds are 1-min average.

Tropical cyclone tracks developed by Michael Bath using data from the Joint Typhoon Warning Centre Best Tracks and Google Maps.


[Australian Severe Weather index] [Copyright Notice] [Email Contacts] [Search This Site] [Privacy Policy]
Document: tropical_cyclone_odette.htm Updated: 18 September 2016